Sunday, December 21, 2014
06:52 UTC
  |  Log In   |  Register Free
Airport Search:

Page Field Airport
(KFMY)

FAA data valid effective November 13, 2014 - January 08, 2015 (unless otherwise noted).

 
 
 
 
 
 
 
 
 
 
 
 
 
 

Current Aviation Weather for Page Field Airport (KFMY)

The most recent METAR observation for KFMY was updated at: 2114
METAR Summary (Translated METAR)
KFMY
182053Z AUTO 32009KT 10SM CLR 22/13 A3008 RMK AO2 SLP189 T02220133 56020
KRSW
182053Z AUTO 30007KT 10SM CLR 22/13 A3009 RMK AO2 SLP186 T02170128 56019
(6.5 nm SE from KFMY)
KPGD
182053Z VRB06KT 10SM CLR 22/12 A3010 RMK AO2 SLP194 T02220122 56022
(21.1 nm NW from KFMY)
TAF Summary (Translated TAF)
KFMY
210539Z 2106/2206 VRB04KT P6SM BKN100 FM211400 16007KT P6SM SCT030 BKN080 BKN250 FM211900 18007KT P6SM BKN070 BKN200 FM220000 15005KT P6SM BKN060 BKN120
KRSW
(6.5 nm SE from KFMY)
210539Z 2106/2206 VRB04KT P6SM BKN100 FM211400 16007KT P6SM SCT030 BKN080 BKN250 FM211900 18007KT P6SM BKN070 BKN200 FM220000 15005KT P6SM BKN060 BKN120
  Airport Weather Conditions for KFMY

 Current Weather at FMY
65° F
Mostly Cloudy
North winds at 0.0 mph
FMY NOAA Radar

Pressure: 30.06 in
Humidity: 90%
Wind: Calm
Dew Point: 62.1°F
Visibility: 10.00 mi


Airport Weather Forecast for KFMY

Translated METAR and TAF for KFMY
Translated METAR for KFMY (0652 UTC 21 December 2014)
found at http://aviationweather.gov/adds/metars/
 
METAR text: KFMY 210553Z AUTO 00000KT 10SM BKN100 18/17 A3006 RMK AO2 SLP182 T01830167 10211 20178 58006
Conditions at: KFMY (FORT MYERS , FL, US) observed 0553 UTC 21 December 2014
Temperature: 18.3°C (65°F)
Dewpoint: 16.7°C (62°F) [RH = 90%]
Pressure (altimeter): 30.06 inches Hg (1018.0 mb)
[Sea-level pressure: 1018.2 mb]
Winds: calm
Visibility: 10 or more miles (16+ km)
Ceiling: 10000 feet AGL
Clouds: broken clouds at 10000 feet AGL
Weather: automated observation with no human augmentation;
there may or may not be significant weather present at this time
Translated TAF for KFMY
Forecast for: KFMY (FORT MYERS , FL, US)
TAF Text: KFMY 210539Z 2106/2206 VRB04KT P6SM BKN100
Forecast period: 0600 to 1400 UTC 21 December 2014
Forecast type: FROM: standard forecast or significant change
Winds: variable direction winds at 5 MPH (4 knots; 2.1 m/s)
Visibility: 6 or more miles (10+ km)
Ceiling: 10000 feet AGL
Clouds: broken clouds at 10000 feet AGL
Weather: no significant weather forecast for this period
TAF Text: FM211400 16007KT P6SM SCT030 BKN080 BKN250
Forecast period: 1400 to 1900 UTC 21 December 2014
Forecast type: FROM: standard forecast or significant change
Winds: from the SSE (160 degrees) at 8 MPH (7 knots; 3.6 m/s)
Visibility: 6 or more miles (10+ km)
Ceiling: 8000 feet AGL
Clouds: scattered clouds at 3000 feet AGL
broken clouds at 8000 feet AGL
broken clouds at 25000 feet AGL
Weather: no significant weather forecast for this period
TAF Text: FM211900 18007KT P6SM BKN070 BKN200
Forecast period: 1900 UTC 21 December 2014 to 0000 UTC 22 December 2014
Forecast type: FROM: standard forecast or significant change
Winds: from the S (180 degrees) at 8 MPH (7 knots; 3.6 m/s)
Visibility: 6 or more miles (10+ km)
Ceiling: 7000 feet AGL
Clouds: broken clouds at 7000 feet AGL
broken clouds at 20000 feet AGL
Weather: no significant weather forecast for this period
TAF Text: FM220000 15005KT P6SM BKN060 BKN120
Forecast period: 0000 to 0600 UTC 22 December 2014
Forecast type: FROM: standard forecast or significant change
Winds: from the SSE (150 degrees) at 6 MPH (5 knots; 2.6 m/s)
Visibility: 6 or more miles (10+ km)
Ceiling: 6000 feet AGL
Clouds: broken clouds at 6000 feet AGL
broken clouds at 12000 feet AGL
Weather: no significant weather forecast for this period

Find All Airport Services Find A Hotel Find A Rental Car Find A Golf Course Find A Restaurant $100 Hamburger



FBO's on the Field
FBO Company Facility Photos Services Transportation Aviation Fuel Prices: Prices include tax
Catering Weather Repair Courtesy Rental Type 100LL JetA JetA+ MOGAS 8087
 
Base Operations at Page Field

Currently rated 4.8 by 2 people
FS:Avfuel
Last Updated: Dec-09
Login to update fuel prices
SS:
Contact Base Operations at Page FieldMore FBO Information
 
Add another FBO Facility Photos Catering Weather Repair Courtesy Rental Type 100LL JetA JetA+ MOGAS 8087
Services Transportation Aviation Fuel Prices: Prices include tax


model-print
model-print
model-print
model-print